Skip Navigation

Christman Field Latest Observations

Switch to metric unitsOther observation timesWeekly graphs

Date Time
MST
Temp
°F
RH
%
DewPt
°F
Wind
mph
Dir
°
Gust
mph
Dir
°
Press
in Hg
Solar
W/m^2
Prec
in
2017-08-18 10:00 74.8 33.1 43.9 5.0 139 9.7 139 24.915 468.7 0.00
2017-08-18 09:55 74.7 32.6 43.4 4.8 188 7.5 119 24.914 530.4 0.00
2017-08-18 09:50 74.3 33.3 43.6 4.1 158 5.9 139 24.913 575.6 0.00
2017-08-18 09:45 73.9 34.3 44.0 4.2 148 6.1 111 24.914 554.2 0.00
2017-08-18 09:40 73.8 34.3 43.9 4.8 100 7.0 96 24.913 337.2 0.00
2017-08-18 09:35 73.4 35.6 44.6 4.2 104 5.9 96 24.914 508.5 0.00
2017-08-18 09:30 73.4 37.0 45.6 4.4 94 6.2 84 24.914 598.4 0.00
2017-08-18 09:25 72.9 33.9 42.9 4.7 84 6.7 72 24.914 569.6 0.00
2017-08-18 09:20 73.0 34.5 43.4 4.2 68 6.8 97 24.916 531.9 0.00
2017-08-18 09:15 72.7 37.4 45.3 4.4 112 5.9 92 24.916 618.6 0.00
2017-08-18 09:10 73.0 37.4 45.4 1.9 85 4.3 107 24.916 622.4 0.00
2017-08-18 09:05 72.3 37.0 44.6 3.0 112 4.9 108 24.915 609.4 0.00
2017-08-18 09:00 72.3 35.1 43.2 3.0 147 4.9 85 24.915 597.8 0.00
2017-08-18 08:55 71.9 40.5 46.7 2.6 98 4.8 94 24.916 584.8 0.00
2017-08-18 08:50 71.5 37.5 44.2 2.7 133 5.0 142 24.916 571.8 0.00
2017-08-18 08:45 71.9 38.0 44.9 3.9 130 5.3 125 24.916 558.3 0.00
2017-08-18 08:40 72.0 37.5 44.7 2.5 114 5.3 92 24.916 545.5 0.00
2017-08-18 08:35 71.6 39.1 45.5 2.2 107 3.5 113 24.916 532.1 0.00
2017-08-18 08:30 71.1 36.4 43.2 2.7 132 5.0 121 24.916 519.4 0.00
2017-08-18 08:25 70.7 41.0 45.8 1.8 116 2.8 84 24.915 505.0 0.00
2017-08-18 08:20 70.3 39.2 44.3 1.7 163 2.8 151 24.914 491.0 0.00
2017-08-18 08:15 70.2 42.6 46.4 1.5 152 3.8 152 24.914 476.8 0.00
2017-08-18 08:10 69.6 43.7 46.6 1.5 143 3.2 143 24.915 462.8 0.00
2017-08-18 08:05 69.1 46.8 47.9 1.6 135 3.8 140 24.914 443.9 0.00
2017-08-18 08:00 68.6 49.0 48.7 1.2 126 2.4 113 24.914 432.6 0.00
2017-08-18 07:55 67.9 49.5 48.4 1.8 126 3.1 116 24.915 417.5 0.00
2017-08-18 07:50 67.4 48.2 47.2 1.7 139 3.2 133 24.915 402.9 0.00
2017-08-18 07:45 67.0 45.0 45.0 1.5 78 2.7 67 24.914 387.6 0.00
2017-08-18 07:40 66.2 49.4 46.7 2.1 44 3.7 36 24.915 372.7 0.00
2017-08-18 07:35 66.5 51.6 48.1 2.3 43 2.9 42 24.916 357.4 0.00